sensor_id;sensor_type;location;lat;lon;timestamp;temperature;humidity
41256;DHT22;26989;45.524;10.938;2023-03-01T00:01:14;3.10;99.90
41256;DHT22;26989;45.524;10.938;2023-03-01T00:03:42;3.10;99.90
41256;DHT22;26989;45.524;10.938;2023-03-01T00:06:09;3.10;99.90
41256;DHT22;26989;45.524;10.938;2023-03-01T00:08:37;3.20;99.90
41256;DHT22;26989;45.524;10.938;2023-03-01T00:11:28;3.30;99.90
41256;DHT22;26989;45.524;10.938;2023-03-01T00:13:58;3.40;99.90
41256;DHT22;26989;45.524;10.938;2023-03-01T00:16:30;3.50;99.90
41256;DHT22;26989;45.524;10.938;2023-03-01T00:18:58;3.30;99.90
41256;DHT22;26989;45.524;10.938;2023-03-01T00:21:26;3.20;99.90
41256;DHT22;26989;45.524;10.938;2023-03-01T00:23:54;3.10;99.90
41256;DHT22;26989;45.524;10.938;2023-03-01T00:26:23;3.30;99.90
41256;DHT22;26989;45.524;10.938;2023-03-01T00:28:50;3.20;99.90
41256;DHT22;26989;45.524;10.938;2023-03-01T00:31:22;3.20;99.90
41256;DHT22;26989;45.524;10.938;2023-03-01T00:33:52;3.30;99.90
41256;DHT22;26989;45.524;10.938;2023-03-01T00:36:20;3.20;99.90
41256;DHT22;26989;45.524;10.938;2023-03-01T00:38:47;3.10;99.90
41256;DHT22;26989;45.524;10.938;2023-03-01T00:41:15;3.10;99.90
41256;DHT22;26989;45.524;10.938;2023-03-01T00:43:43;3.00;99.90
41256;DHT22;26989;45.524;10.938;2023-03-01T00:46:22;2.90;99.90
41256;DHT22;26989;45.524;10.938;2023-03-01T00:48:49;2.90;99.90
41256;DHT22;26989;45.524;10.938;2023-03-01T00:51:19;2.80;99.90
41256;DHT22;26989;45.524;10.938;2023-03-01T00:53:47;2.70;99.90
41256;DHT22;26989;45.524;10.938;2023-03-01T00:56:16;2.70;99.90
41256;DHT22;26989;45.524;10.938;2023-03-01T00:58:43;2.70;99.90
41256;DHT22;26989;45.524;10.938;2023-03-01T01:01:12;2.60;99.90
41256;DHT22;26989;45.524;10.938;2023-03-01T01:06:26;2.50;99.90
41256;DHT22;26989;45.524;10.938;2023-03-01T01:08:55;2.40;99.90
41256;DHT22;26989;45.524;10.938;2023-03-01T01:11:23;2.30;99.90
41256;DHT22;26989;45.524;10.938;2023-03-01T01:13:51;2.40;99.90
41256;DHT22;26989;45.524;10.938;2023-03-01T01:16:19;2.50;99.90
41256;DHT22;26989;45.524;10.938;2023-03-01T01:18:46;2.40;99.90
41256;DHT22;26989;45.524;10.938;2023-03-01T01:21:16;2.40;99.90
41256;DHT22;26989;45.524;10.938;2023-03-01T01:23:44;2.30;99.90
41256;DHT22;26989;45.524;10.938;2023-03-01T01:26:17;2.30;99.90
41256;DHT22;26989;45.524;10.938;2023-03-01T01:28:45;2.30;99.90
41256;DHT22;26989;45.524;10.938;2023-03-01T01:31:12;2.20;99.90
41256;DHT22;26989;45.524;10.938;2023-03-01T01:33:39;2.30;99.90
41256;DHT22;26989;45.524;10.938;2023-03-01T01:36:07;2.20;99.90
41256;DHT22;26989;45.524;10.938;2023-03-01T01:38:34;2.20;99.90
41256;DHT22;26989;45.524;10.938;2023-03-01T01:41:02;2.10;99.90
41256;DHT22;26989;45.524;10.938;2023-03-01T01:46:31;2.20;99.90
41256;DHT22;26989;45.524;10.938;2023-03-01T01:54:47;2.10;99.90
41256;DHT22;26989;45.524;10.938;2023-03-01T01:57:19;2.00;99.90
41256;DHT22;26989;45.524;10.938;2023-03-01T01:59:51;2.00;99.90
41256;DHT22;26989;45.524;10.938;2023-03-01T02:02:18;1.90;99.90
41256;DHT22;26989;45.524;10.938;2023-03-01T02:04:48;2.00;99.90
41256;DHT22;26989;45.524;10.938;2023-03-01T02:07:19;1.90;99.90
41256;DHT22;26989;45.524;10.938;2023-03-01T02:09:49;2.00;99.90
41256;DHT22;26989;45.524;10.938;2023-03-01T02:12:18;1.90;99.90
41256;DHT22;26989;45.524;10.938;2023-03-01T02:14:45;1.90;99.90
41256;DHT22;26989;45.524;10.938;2023-03-01T02:17:15;1.80;99.90
41256;DHT22;26989;45.524;10.938;2023-03-01T02:22:24;1.90;99.90
41256;DHT22;26989;45.524;10.938;2023-03-01T02:27:21;1.90;99.90
41256;DHT22;26989;45.524;10.938;2023-03-01T02:29:51;1.90;99.90
41256;DHT22;26989;45.524;10.938;2023-03-01T02:32:18;2.00;99.90
41256;DHT22;26989;45.524;10.938;2023-03-01T02:34:53;1.90;99.90
41256;DHT22;26989;45.524;10.938;2023-03-01T02:37:22;1.80;99.90
41256;DHT22;26989;45.524;10.938;2023-03-01T02:40:02;1.70;99.90
41256;DHT22;26989;45.524;10.938;2023-03-01T02:42:33;1.60;99.90
41256;DHT22;26989;45.524;10.938;2023-03-01T02:45:02;1.60;99.90
41256;DHT22;26989;45.524;10.938;2023-03-01T02:47:29;1.60;99.90
41256;DHT22;26989;45.524;10.938;2023-03-01T02:49:56;1.60;99.90
41256;DHT22;26989;45.524;10.938;2023-03-01T02:57:27;1.60;99.90
41256;DHT22;26989;45.524;10.938;2023-03-01T02:59:55;1.60;99.90
41256;DHT22;26989;45.524;10.938;2023-03-01T03:02:26;1.60;99.90
41256;DHT22;26989;45.524;10.938;2023-03-01T03:05:05;1.50;99.90
41256;DHT22;26989;45.524;10.938;2023-03-01T03:07:36;1.50;99.90
41256;DHT22;26989;45.524;10.938;2023-03-01T03:10:05;1.40;99.90
41256;DHT22;26989;45.524;10.938;2023-03-01T03:12:32;1.50;99.90
41256;DHT22;26989;45.524;10.938;2023-03-01T03:14:59;1.40;99.90
41256;DHT22;26989;45.524;10.938;2023-03-01T03:17:26;1.40;99.90
41256;DHT22;26989;45.524;10.938;2023-03-01T03:19:53;1.40;99.90
41256;DHT22;26989;45.524;10.938;2023-03-01T03:22:20;1.60;99.90
41256;DHT22;26989;45.524;10.938;2023-03-01T03:24:47;1.60;99.90
41256;DHT22;26989;45.524;10.938;2023-03-01T03:27:13;1.60;99.90
41256;DHT22;26989;45.524;10.938;2023-03-01T03:29:40;1.60;99.90
41256;DHT22;26989;45.524;10.938;2023-03-01T03:32:07;1.60;99.90
41256;DHT22;26989;45.524;10.938;2023-03-01T03:34:34;1.60;99.90
41256;DHT22;26989;45.524;10.938;2023-03-01T03:37:01;1.70;99.90
41256;DHT22;26989;45.524;10.938;2023-03-01T03:39:27;1.60;99.90
41256;DHT22;26989;45.524;10.938;2023-03-01T03:41:55;1.60;99.90
41256;DHT22;26989;45.524;10.938;2023-03-01T03:44:22;1.60;99.90
41256;DHT22;26989;45.524;10.938;2023-03-01T03:46:49;1.60;99.90
41256;DHT22;26989;45.524;10.938;2023-03-01T03:49:15;1.60;99.90
41256;DHT22;26989;45.524;10.938;2023-03-01T03:51:45;1.60;99.90
41256;DHT22;26989;45.524;10.938;2023-03-01T03:54:12;1.70;99.90
41256;DHT22;26989;45.524;10.938;2023-03-01T03:56:38;1.70;99.90
41256;DHT22;26989;45.524;10.938;2023-03-01T03:59:06;1.70;99.90
41256;DHT22;26989;45.524;10.938;2023-03-01T04:01:33;1.80;99.90
41256;DHT22;26989;45.524;10.938;2023-03-01T04:04:00;1.90;99.90
41256;DHT22;26989;45.524;10.938;2023-03-01T04:06:32;2.00;99.90
41256;DHT22;26989;45.524;10.938;2023-03-01T04:08:59;2.00;99.90
41256;DHT22;26989;45.524;10.938;2023-03-01T04:11:28;2.10;99.90
41256;DHT22;26989;45.524;10.938;2023-03-01T04:13:57;2.20;99.90
41256;DHT22;26989;45.524;10.938;2023-03-01T04:16:25;2.30;99.90
41256;DHT22;26989;45.524;10.938;2023-03-01T04:18:52;2.20;99.90
41256;DHT22;26989;45.524;10.938;2023-03-01T04:21:20;2.30;99.90
41256;DHT22;26989;45.524;10.938;2023-03-01T04:23:47;2.30;99.90
41256;DHT22;26989;45.524;10.938;2023-03-01T04:26:14;2.30;99.90
41256;DHT22;26989;45.524;10.938;2023-03-01T04:28:42;2.40;99.90
41256;DHT22;26989;45.524;10.938;2023-03-01T04:31:15;2.40;99.90
41256;DHT22;26989;45.524;10.938;2023-03-01T04:33:49;2.40;99.90
41256;DHT22;26989;45.524;10.938;2023-03-01T04:36:20;2.50;99.90
41256;DHT22;26989;45.524;10.938;2023-03-01T04:38:47;2.50;99.90
41256;DHT22;26989;45.524;10.938;2023-03-01T04:41:17;2.50;99.90
41256;DHT22;26989;45.524;10.938;2023-03-01T04:43:45;2.50;99.90
41256;DHT22;26989;45.524;10.938;2023-03-01T04:46:15;2.50;99.90
41256;DHT22;26989;45.524;10.938;2023-03-01T04:48:44;2.60;99.90
41256;DHT22;26989;45.524;10.938;2023-03-01T04:51:11;2.70;99.90
41256;DHT22;26989;45.524;10.938;2023-03-01T04:53:40;2.70;99.90
41256;DHT22;26989;45.524;10.938;2023-03-01T04:56:08;2.70;99.90
41256;DHT22;26989;45.524;10.938;2023-03-01T04:58:35;2.80;99.90
41256;DHT22;26989;45.524;10.938;2023-03-01T05:01:11;2.80;99.90
41256;DHT22;26989;45.524;10.938;2023-03-01T05:03:50;2.80;99.90
41256;DHT22;26989;45.524;10.938;2023-03-01T05:06:19;2.80;99.90
41256;DHT22;26989;45.524;10.938;2023-03-01T05:08:46;2.80;99.90
41256;DHT22;26989;45.524;10.938;2023-03-01T05:11:12;2.80;99.90
41256;DHT22;26989;45.524;10.938;2023-03-01T05:13:40;2.70;99.90
41256;DHT22;26989;45.524;10.938;2023-03-01T05:16:08;2.70;99.90
41256;DHT22;26989;45.524;10.938;2023-03-01T05:18:39;2.80;99.90
41256;DHT22;26989;45.524;10.938;2023-03-01T05:21:12;2.90;99.90
41256;DHT22;26989;45.524;10.938;2023-03-01T05:23:39;2.80;99.90
41256;DHT22;26989;45.524;10.938;2023-03-01T05:26:08;2.80;99.90
41256;DHT22;26989;45.524;10.938;2023-03-01T05:28:53;2.80;99.90
41256;DHT22;26989;45.524;10.938;2023-03-01T05:31:25;2.90;99.90
41256;DHT22;26989;45.524;10.938;2023-03-01T05:33:52;2.90;99.90
41256;DHT22;26989;45.524;10.938;2023-03-01T05:36:19;2.90;99.90
41256;DHT22;26989;45.524;10.938;2023-03-01T05:38:46;2.90;99.90
41256;DHT22;26989;45.524;10.938;2023-03-01T05:41:14;2.80;99.90
41256;DHT22;26989;45.524;10.938;2023-03-01T05:43:41;2.80;99.90
41256;DHT22;26989;45.524;10.938;2023-03-01T05:46:11;2.90;99.90
41256;DHT22;26989;45.524;10.938;2023-03-01T05:48:40;2.90;99.90
41256;DHT22;26989;45.524;10.938;2023-03-01T05:51:07;2.90;99.90
41256;DHT22;26989;45.524;10.938;2023-03-01T05:53:33;3.00;99.90
41256;DHT22;26989;45.524;10.938;2023-03-01T05:56:03;3.10;99.90
41256;DHT22;26989;45.524;10.938;2023-03-01T05:58:30;3.00;99.90
41256;DHT22;26989;45.524;10.938;2023-03-01T06:00:57;3.10;99.90
41256;DHT22;26989;45.524;10.938;2023-03-01T06:03:24;3.10;99.90
41256;DHT22;26989;45.524;10.938;2023-03-01T06:05:56;3.10;99.90
41256;DHT22;26989;45.524;10.938;2023-03-01T06:08:23;3.10;99.90
41256;DHT22;26989;45.524;10.938;2023-03-01T06:10:50;3.10;99.90
41256;DHT22;26989;45.524;10.938;2023-03-01T06:13:17;3.00;99.90
41256;DHT22;26989;45.524;10.938;2023-03-01T06:15:44;3.00;99.90
41256;DHT22;26989;45.524;10.938;2023-03-01T06:18:11;3.00;99.90
41256;DHT22;26989;45.524;10.938;2023-03-01T06:20:38;3.00;99.90
41256;DHT22;26989;45.524;10.938;2023-03-01T06:23:04;3.00;99.90
41256;DHT22;26989;45.524;10.938;2023-03-01T06:25:32;3.00;99.90
41256;DHT22;26989;45.524;10.938;2023-03-01T06:27:59;3.10;99.90
41256;DHT22;26989;45.524;10.938;2023-03-01T06:30:26;3.00;99.90
41256;DHT22;26989;45.524;10.938;2023-03-01T06:32:53;3.00;99.90
41256;DHT22;26989;45.524;10.938;2023-03-01T06:35:27;3.10;99.90
41256;DHT22;26989;45.524;10.938;2023-03-01T06:37:57;3.20;99.90
41256;DHT22;26989;45.524;10.938;2023-03-01T06:40:24;3.20;99.90
41256;DHT22;26989;45.524;10.938;2023-03-01T06:42:52;3.10;99.90
41256;DHT22;26989;45.524;10.938;2023-03-01T06:45:19;3.10;99.90
41256;DHT22;26989;45.524;10.938;2023-03-01T06:47:47;3.10;99.90
41256;DHT22;26989;45.524;10.938;2023-03-01T06:50:15;3.30;99.90
41256;DHT22;26989;45.524;10.938;2023-03-01T06:52:41;3.30;99.90
41256;DHT22;26989;45.524;10.938;2023-03-01T06:55:11;3.50;99.90
41256;DHT22;26989;45.524;10.938;2023-03-01T06:57:38;3.60;99.90
41256;DHT22;26989;45.524;10.938;2023-03-01T07:00:05;3.70;99.90
41256;DHT22;26989;45.524;10.938;2023-03-01T07:02:33;3.80;99.90
41256;DHT22;26989;45.524;10.938;2023-03-01T07:05:00;3.90;99.90
41256;DHT22;26989;45.524;10.938;2023-03-01T07:07:27;4.00;99.90
41256;DHT22;26989;45.524;10.938;2023-03-01T07:09:54;4.00;99.90
41256;DHT22;26989;45.524;10.938;2023-03-01T07:12:20;4.10;99.90
41256;DHT22;26989;45.524;10.938;2023-03-01T07:14:47;4.10;99.90
41256;DHT22;26989;45.524;10.938;2023-03-01T07:17:14;4.20;99.90
41256;DHT22;26989;45.524;10.938;2023-03-01T07:19:41;4.40;99.90
41256;DHT22;26989;45.524;10.938;2023-03-01T07:22:08;4.60;99.90
41256;DHT22;26989;45.524;10.938;2023-03-01T07:24:35;4.60;99.90
41256;DHT22;26989;45.524;10.938;2023-03-01T07:27:02;4.80;99.90
41256;DHT22;26989;45.524;10.938;2023-03-01T07:29:29;4.70;99.90
41256;DHT22;26989;45.524;10.938;2023-03-01T07:31:56;4.80;99.90
41256;DHT22;26989;45.524;10.938;2023-03-01T07:34:23;4.90;99.90
41256;DHT22;26989;45.524;10.938;2023-03-01T07:36:51;5.30;99.90
41256;DHT22;26989;45.524;10.938;2023-03-01T07:39:20;5.20;99.90
41256;DHT22;26989;45.524;10.938;2023-03-01T07:41:50;5.50;99.90
41256;DHT22;26989;45.524;10.938;2023-03-01T07:44:17;5.70;99.90
41256;DHT22;26989;45.524;10.938;2023-03-01T07:46:44;5.60;99.90
41256;DHT22;26989;45.524;10.938;2023-03-01T07:49:11;6.00;99.90
41256;DHT22;26989;45.524;10.938;2023-03-01T07:51:37;5.90;99.90
41256;DHT22;26989;45.524;10.938;2023-03-01T07:54:04;5.60;99.90
41256;DHT22;26989;45.524;10.938;2023-03-01T07:56:31;5.60;99.90
41256;DHT22;26989;45.524;10.938;2023-03-01T07:58:59;5.80;99.90
41256;DHT22;26989;45.524;10.938;2023-03-01T08:01:26;6.10;99.90
41256;DHT22;26989;45.524;10.938;2023-03-01T08:03:53;6.50;99.90
41256;DHT22;26989;45.524;10.938;2023-03-01T08:06:19;6.80;99.90
41256;DHT22;26989;45.524;10.938;2023-03-01T08:08:46;6.90;99.80
41256;DHT22;26989;45.524;10.938;2023-03-01T08:11:14;7.10;99.90
41256;DHT22;26989;45.524;10.938;2023-03-01T08:13:42;7.10;99.90
41256;DHT22;26989;45.524;10.938;2023-03-01T08:16:13;7.40;99.90
41256;DHT22;26989;45.524;10.938;2023-03-01T08:18:40;7.80;99.90
41256;DHT22;26989;45.524;10.938;2023-03-01T08:21:09;7.70;99.90
41256;DHT22;26989;45.524;10.938;2023-03-01T08:23:37;7.80;99.90
41256;DHT22;26989;45.524;10.938;2023-03-01T08:26:10;7.50;99.30
41256;DHT22;26989;45.524;10.938;2023-03-01T08:28:39;7.70;99.90
41256;DHT22;26989;45.524;10.938;2023-03-01T08:33:58;7.60;99.80
41256;DHT22;26989;45.524;10.938;2023-03-01T08:36:27;7.80;99.20
41256;DHT22;26989;45.524;10.938;2023-03-01T08:38:55;7.90;99.20
41256;DHT22;26989;45.524;10.938;2023-03-01T08:41:23;8.00;98.80
41256;DHT22;26989;45.524;10.938;2023-03-01T08:43:49;8.10;98.50
41256;DHT22;26989;45.524;10.938;2023-03-01T08:46:16;8.30;98.60
41256;DHT22;26989;45.524;10.938;2023-03-01T08:48:44;8.20;98.80
41256;DHT22;26989;45.524;10.938;2023-03-01T08:51:16;8.40;98.30
41256;DHT22;26989;45.524;10.938;2023-03-01T08:53:45;8.50;98.50
41256;DHT22;26989;45.524;10.938;2023-03-01T08:56:13;8.50;98.40
41256;DHT22;26989;45.524;10.938;2023-03-01T08:58:43;8.50;98.60
41256;DHT22;26989;45.524;10.938;2023-03-01T09:01:11;8.60;98.40
41256;DHT22;26989;45.524;10.938;2023-03-01T09:03:38;8.60;98.20
41256;DHT22;26989;45.524;10.938;2023-03-01T09:06:06;8.60;97.40
41256;DHT22;26989;45.524;10.938;2023-03-01T09:08:38;8.80;97.60
41256;DHT22;26989;45.524;10.938;2023-03-01T09:11:07;8.70;97.40
41256;DHT22;26989;45.524;10.938;2023-03-01T09:13:34;8.70;97.30
41256;DHT22;26989;45.524;10.938;2023-03-01T09:16:03;8.70;97.60
41256;DHT22;26989;45.524;10.938;2023-03-01T09:18:31;8.80;97.70
41256;DHT22;26989;45.524;10.938;2023-03-01T09:21:16;8.70;97.20
41256;DHT22;26989;45.524;10.938;2023-03-01T09:23:56;8.70;96.70
41256;DHT22;26989;45.524;10.938;2023-03-01T09:26:24;9.00;96.60
41256;DHT22;26989;45.524;10.938;2023-03-01T09:28:53;8.80;96.70
41256;DHT22;26989;45.524;10.938;2023-03-01T09:31:21;8.80;96.90
41256;DHT22;26989;45.524;10.938;2023-03-01T09:33:50;8.90;96.90
41256;DHT22;26989;45.524;10.938;2023-03-01T09:36:19;8.60;96.90
41256;DHT22;26989;45.524;10.938;2023-03-01T09:38:47;8.40;97.80
41256;DHT22;26989;45.524;10.938;2023-03-01T09:43:47;8.90;97.50
41256;DHT22;26989;45.524;10.938;2023-03-01T09:46:15;8.90;96.80
41256;DHT22;26989;45.524;10.938;2023-03-01T09:49:01;9.00;97.10
41256;DHT22;26989;45.524;10.938;2023-03-01T09:51:32;8.90;97.30
41256;DHT22;26989;45.524;10.938;2023-03-01T09:54:05;9.10;97.30
41256;DHT22;26989;45.524;10.938;2023-03-01T09:56:33;9.10;97.20
41256;DHT22;26989;45.524;10.938;2023-03-01T09:59:49;9.00;96.60
41256;DHT22;26989;45.524;10.938;2023-03-01T10:02:46;9.10;96.60
41256;DHT22;26989;45.524;10.938;2023-03-01T10:11:04;9.30;96.50
41256;DHT22;26989;45.524;10.938;2023-03-01T10:13:45;9.30;96.10
41256;DHT22;26989;45.524;10.938;2023-03-01T10:16:20;9.40;95.50
41256;DHT22;26989;45.524;10.938;2023-03-01T10:18:53;9.30;96.30
41256;DHT22;26989;45.524;10.938;2023-03-01T10:21:21;9.30;96.50
41256;DHT22;26989;45.524;10.938;2023-03-01T10:23:51;9.20;96.80
41256;DHT22;26989;45.524;10.938;2023-03-01T10:29:12;9.00;98.60
41256;DHT22;26989;45.524;10.938;2023-03-01T10:31:43;8.80;99.60
41256;DHT22;26989;45.524;10.938;2023-03-01T10:34:19;8.90;99.50
41256;DHT22;26989;45.524;10.938;2023-03-01T10:36:51;8.80;99.70
41256;DHT22;26989;45.524;10.938;2023-03-01T10:39:20;9.00;99.50
41256;DHT22;26989;45.524;10.938;2023-03-01T10:44:46;9.00;99.20
41256;DHT22;26989;45.524;10.938;2023-03-01T10:47:31;9.30;98.90
41256;DHT22;26989;45.524;10.938;2023-03-01T10:50:04;9.20;98.70
41256;DHT22;26989;45.524;10.938;2023-03-01T10:52:40;9.40;98.50
41256;DHT22;26989;45.524;10.938;2023-03-01T10:57:49;9.30;97.30
41256;DHT22;26989;45.524;10.938;2023-03-01T11:00:24;8.50;98.80
41256;DHT22;26989;45.524;10.938;2023-03-01T11:05:25;8.30;99.50
41256;DHT22;26989;45.524;10.938;2023-03-01T11:07:59;8.70;99.20
41256;DHT22;26989;45.524;10.938;2023-03-01T11:13:15;9.30;98.50
41256;DHT22;26989;45.524;10.938;2023-03-01T11:15:44;9.40;98.30
41256;DHT22;26989;45.524;10.938;2023-03-01T11:18:26;9.40;97.90
41256;DHT22;26989;45.524;10.938;2023-03-01T11:21:12;9.40;97.50
41256;DHT22;26989;45.524;10.938;2023-03-01T11:23:39;9.40;97.80
41256;DHT22;26989;45.524;10.938;2023-03-01T11:26:09;9.00;97.80
41256;DHT22;26989;45.524;10.938;2023-03-01T11:28:40;9.20;98.10
41256;DHT22;26989;45.524;10.938;2023-03-01T11:31:10;9.20;98.10
41256;DHT22;26989;45.524;10.938;2023-03-01T11:33:49;9.30;97.30
41256;DHT22;26989;45.524;10.938;2023-03-01T11:36:32;9.30;97.00
41256;DHT22;26989;45.524;10.938;2023-03-01T11:41:40;9.40;97.70
41256;DHT22;26989;45.524;10.938;2023-03-01T11:44:16;9.60;97.20
41256;DHT22;26989;45.524;10.938;2023-03-01T11:50:45;9.70;96.80
41256;DHT22;26989;45.524;10.938;2023-03-01T11:55:57;9.90;96.90
41256;DHT22;26989;45.524;10.938;2023-03-01T12:09:20;10.70;95.50
41256;DHT22;26989;45.524;10.938;2023-03-01T12:20:51;10.70;94.80
41256;DHT22;26989;45.524;10.938;2023-03-01T12:26:44;10.20;93.50
41256;DHT22;26989;45.524;10.938;2023-03-01T12:29:14;9.90;95.90
41256;DHT22;26989;45.524;10.938;2023-03-01T12:39:58;9.00;99.90
41256;DHT22;26989;45.524;10.938;2023-03-01T12:45:38;9.20;99.90
41256;DHT22;26989;45.524;10.938;2023-03-01T12:50:53;8.90;99.90
41256;DHT22;26989;45.524;10.938;2023-03-01T12:53:24;8.80;99.90
41256;DHT22;26989;45.524;10.938;2023-03-01T12:56:09;8.90;99.90
41256;DHT22;26989;45.524;10.938;2023-03-01T13:09:57;8.70;99.90
41256;DHT22;26989;45.524;10.938;2023-03-01T13:17:51;9.10;99.90
41256;DHT22;26989;45.524;10.938;2023-03-01T13:20:22;9.10;99.90
41256;DHT22;26989;45.524;10.938;2023-03-01T13:23:02;8.90;99.90
41256;DHT22;26989;45.524;10.938;2023-03-01T13:25:29;9.10;99.90
41256;DHT22;26989;45.524;10.938;2023-03-01T13:33:54;9.70;99.20
41256;DHT22;26989;45.524;10.938;2023-03-01T13:46:40;9.80;99.30
41256;DHT22;26989;45.524;10.938;2023-03-01T13:49:13;9.80;98.90
41256;DHT22;26989;45.524;10.938;2023-03-01T13:51:41;9.50;98.50
41256;DHT22;26989;45.524;10.938;2023-03-01T13:54:12;9.60;98.40
41256;DHT22;26989;45.524;10.938;2023-03-01T13:56:40;9.50;98.20
41256;DHT22;26989;45.524;10.938;2023-03-01T13:59:17;9.60;98.30
41256;DHT22;26989;45.524;10.938;2023-03-01T14:01:44;9.60;98.40
41256;DHT22;26989;45.524;10.938;2023-03-01T14:04:24;9.50;97.90
41256;DHT22;26989;45.524;10.938;2023-03-01T14:06:52;9.50;98.00
41256;DHT22;26989;45.524;10.938;2023-03-01T14:09:39;9.60;97.50
41256;DHT22;26989;45.524;10.938;2023-03-01T14:15:06;9.40;98.10
41256;DHT22;26989;45.524;10.938;2023-03-01T14:20:27;9.10;98.60
41256;DHT22;26989;45.524;10.938;2023-03-01T14:22:59;9.10;98.90
41256;DHT22;26989;45.524;10.938;2023-03-01T14:25:32;9.10;98.80
41256;DHT22;26989;45.524;10.938;2023-03-01T14:30:41;8.90;98.80
41256;DHT22;26989;45.524;10.938;2023-03-01T14:33:32;9.10;99.20
41256;DHT22;26989;45.524;10.938;2023-03-01T14:36:09;8.90;99.00
41256;DHT22;26989;45.524;10.938;2023-03-01T14:41:10;9.10;98.60
41256;DHT22;26989;45.524;10.938;2023-03-01T14:43:43;9.00;98.50
41256;DHT22;26989;45.524;10.938;2023-03-01T14:46:30;9.00;98.20
41256;DHT22;26989;45.524;10.938;2023-03-01T14:49:25;9.10;98.70
41256;DHT22;26989;45.524;10.938;2023-03-01T14:51:58;8.90;98.70
41256;DHT22;26989;45.524;10.938;2023-03-01T14:54:39;8.90;99.20
41256;DHT22;26989;45.524;10.938;2023-03-01T14:57:14;8.80;99.70
41256;DHT22;26989;45.524;10.938;2023-03-01T14:59:43;8.70;99.50
41256;DHT22;26989;45.524;10.938;2023-03-01T15:02:20;8.60;99.70
41256;DHT22;26989;45.524;10.938;2023-03-01T15:04:51;8.60;99.70
41256;DHT22;26989;45.524;10.938;2023-03-01T15:07:19;8.50;99.90
41256;DHT22;26989;45.524;10.938;2023-03-01T15:09:46;8.50;99.90
41256;DHT22;26989;45.524;10.938;2023-03-01T15:14:56;8.60;99.90
41256;DHT22;26989;45.524;10.938;2023-03-01T15:17:34;8.70;99.80
41256;DHT22;26989;45.524;10.938;2023-03-01T15:20:06;8.60;99.90
41256;DHT22;26989;45.524;10.938;2023-03-01T15:22:33;8.80;99.40
41256;DHT22;26989;45.524;10.938;2023-03-01T15:25:01;8.80;99.40
41256;DHT22;26989;45.524;10.938;2023-03-01T15:27:28;8.90;99.40
41256;DHT22;26989;45.524;10.938;2023-03-01T15:30:00;9.30;98.70
41256;DHT22;26989;45.524;10.938;2023-03-01T15:32:33;9.30;98.90
41256;DHT22;26989;45.524;10.938;2023-03-01T15:35:31;9.10;99.20
41256;DHT22;26989;45.524;10.938;2023-03-01T15:37:49;9.10;99.50
41256;DHT22;26989;45.524;10.938;2023-03-01T15:40:28;8.90;99.90
41256;DHT22;26989;45.524;10.938;2023-03-01T15:43:00;8.80;99.90
41256;DHT22;26989;45.524;10.938;2023-03-01T15:45:29;8.70;99.90
41256;DHT22;26989;45.524;10.938;2023-03-01T15:47:58;8.60;99.90
41256;DHT22;26989;45.524;10.938;2023-03-01T15:50:30;8.60;99.90
41256;DHT22;26989;45.524;10.938;2023-03-01T15:53:00;8.50;99.90
41256;DHT22;26989;45.524;10.938;2023-03-01T15:55:30;8.40;99.90
41256;DHT22;26989;45.524;10.938;2023-03-01T15:58:12;8.40;99.90
41256;DHT22;26989;45.524;10.938;2023-03-01T16:00:40;8.20;99.90
41256;DHT22;26989;45.524;10.938;2023-03-01T16:03:23;8.10;99.90
41256;DHT22;26989;45.524;10.938;2023-03-01T16:05:50;8.00;99.90
41256;DHT22;26989;45.524;10.938;2023-03-01T16:08:18;8.00;99.90
41256;DHT22;26989;45.524;10.938;2023-03-01T16:10:45;7.90;99.90
41256;DHT22;26989;45.524;10.938;2023-03-01T16:13:14;7.80;99.90
41256;DHT22;26989;45.524;10.938;2023-03-01T16:15:41;7.70;99.90
41256;DHT22;26989;45.524;10.938;2023-03-01T16:18:08;7.60;99.90
41256;DHT22;26989;45.524;10.938;2023-03-01T16:20:37;7.50;99.90
41256;DHT22;26989;45.524;10.938;2023-03-01T16:23:06;7.40;99.90
41256;DHT22;26989;45.524;10.938;2023-03-01T16:25:36;7.30;99.90
41256;DHT22;26989;45.524;10.938;2023-03-01T16:28:04;7.30;99.90
41256;DHT22;26989;45.524;10.938;2023-03-01T16:30:37;7.30;99.90
41256;DHT22;26989;45.524;10.938;2023-03-01T16:33:04;7.20;99.90
41256;DHT22;26989;45.524;10.938;2023-03-01T16:35:55;7.10;99.90
41256;DHT22;26989;45.524;10.938;2023-03-01T16:38:22;7.00;99.90
41256;DHT22;26989;45.524;10.938;2023-03-01T16:40:50;6.90;99.90
41256;DHT22;26989;45.524;10.938;2023-03-01T16:43:18;6.80;99.90
41256;DHT22;26989;45.524;10.938;2023-03-01T16:45:45;6.80;99.90
41256;DHT22;26989;45.524;10.938;2023-03-01T16:48:13;6.60;99.90
41256;DHT22;26989;45.524;10.938;2023-03-01T16:50:40;6.40;99.90
41256;DHT22;26989;45.524;10.938;2023-03-01T16:53:07;6.40;99.90
41256;DHT22;26989;45.524;10.938;2023-03-01T16:55:34;6.40;99.90
41256;DHT22;26989;45.524;10.938;2023-03-01T16:58:01;6.30;99.90
41256;DHT22;26989;45.524;10.938;2023-03-01T17:00:28;6.30;99.90
41256;DHT22;26989;45.524;10.938;2023-03-01T17:02:55;6.20;99.90
41256;DHT22;26989;45.524;10.938;2023-03-01T17:05:22;6.10;99.90
41256;DHT22;26989;45.524;10.938;2023-03-01T17:07:50;6.10;99.90
41256;DHT22;26989;45.524;10.938;2023-03-01T17:10:17;6.40;99.90
41256;DHT22;26989;45.524;10.938;2023-03-01T17:12:47;6.30;99.90
41256;DHT22;26989;45.524;10.938;2023-03-01T17:15:14;6.30;99.90
41256;DHT22;26989;45.524;10.938;2023-03-01T17:17:41;6.40;99.90
41256;DHT22;26989;45.524;10.938;2023-03-01T17:20:08;6.60;99.90
41256;DHT22;26989;45.524;10.938;2023-03-01T17:22:36;6.50;99.90
41256;DHT22;26989;45.524;10.938;2023-03-01T17:25:03;6.50;99.90
41256;DHT22;26989;45.524;10.938;2023-03-01T17:27:30;6.50;99.90
41256;DHT22;26989;45.524;10.938;2023-03-01T17:30:01;6.50;99.90
41256;DHT22;26989;45.524;10.938;2023-03-01T17:32:28;6.40;99.90
41256;DHT22;26989;45.524;10.938;2023-03-01T17:34:55;6.40;99.90
41256;DHT22;26989;45.524;10.938;2023-03-01T17:37:22;6.40;99.90
41256;DHT22;26989;45.524;10.938;2023-03-01T17:39:49;6.50;99.90
41256;DHT22;26989;45.524;10.938;2023-03-01T17:42:15;6.30;99.90
41256;DHT22;26989;45.524;10.938;2023-03-01T17:44:42;6.20;99.90
41256;DHT22;26989;45.524;10.938;2023-03-01T17:47:09;6.10;99.90
41256;DHT22;26989;45.524;10.938;2023-03-01T17:49:36;6.00;99.90
41256;DHT22;26989;45.524;10.938;2023-03-01T17:52:03;6.00;99.90
41256;DHT22;26989;45.524;10.938;2023-03-01T17:54:31;6.10;99.90
41256;DHT22;26989;45.524;10.938;2023-03-01T17:56:59;6.10;99.90
41256;DHT22;26989;45.524;10.938;2023-03-01T17:59:26;6.00;99.90
41256;DHT22;26989;45.524;10.938;2023-03-01T18:01:59;6.00;99.90
41256;DHT22;26989;45.524;10.938;2023-03-01T18:04:28;5.90;99.90
41256;DHT22;26989;45.524;10.938;2023-03-01T18:06:55;6.00;99.90